Terminal Aerodrome Forecast
Issued by NWS

Home | Current Version | Previous Version | Text Only | Print | Product List | Glossary On
Versions: 1 2 3 4 5 6 7 8 9 10 11 12 13 14 15
000
FTUS45 KRIW 062000 AAA
TAFRKS
TAF AMD
KRKS 062006Z 0620/0718 27014G20KT P6SM SCT060 BKN080
     FM062200 05012KT P6SM VCTS BKN060CB
     FM070000 06015KT 4SM -SHRA VCTS SCT015 BKN025CB
     FM070300 06015KT 5SM -SHRA SCT012 BKN025
     FM070900 07015KT P6SM VCSH FEW015 BKN040=

USA.gov is the U.S. government's official web portal to all federal, state and local government web resources and services.